createdAt,value
2022-12-01T00:04:59.000Z,364.90
2022-12-01T00:14:59.000Z,357.00
2022-12-01T00:24:59.000Z,344.10
2022-12-01T00:34:59.000Z,380.50
2022-12-01T00:54:59.000Z,368.50
2022-12-01T01:04:59.000Z,371.70
2022-12-01T01:14:59.000Z,398.50
2022-12-01T01:24:59.000Z,361.90
2022-12-01T01:34:59.000Z,351.70
2022-12-01T01:44:59.000Z,375.60
2022-12-01T01:54:59.000Z,373.70
2022-12-01T02:04:59.000Z,325.90
2022-12-01T02:24:59.000Z,326.00
2022-12-01T02:34:59.000Z,327.50
2022-12-01T02:44:59.000Z,342.00
2022-12-01T02:54:59.000Z,336.60
2022-12-01T03:04:59.000Z,342.90
2022-12-01T03:14:59.000Z,373.80
2022-12-01T03:24:59.000Z,352.90
2022-12-01T03:34:59.000Z,331.90
2022-12-01T03:54:59.000Z,307.90
2022-12-01T04:04:59.000Z,331.80
2022-12-01T04:14:59.000Z,373.40
2022-12-01T04:24:59.000Z,347.30
2022-12-01T04:34:59.000Z,307.80
2022-12-01T04:44:59.000Z,322.40
2022-12-01T04:54:59.000Z,309.60
2022-12-01T05:05:00.000Z,298.60
2022-12-01T05:25:00.000Z,292.20
2022-12-01T05:35:00.000Z,332.20
2022-12-01T05:45:00.000Z,275.30
2022-12-01T05:55:00.000Z,280.50
2022-12-01T06:05:00.000Z,337.30
2022-12-01T06:15:00.000Z,336.30
2022-12-01T06:25:01.000Z,306.10
2022-12-01T06:35:01.000Z,328.10
2022-12-01T06:55:01.000Z,317.20
2022-12-01T07:05:01.000Z,275.00
2022-12-01T07:15:01.000Z,279.30
2022-12-01T07:25:01.000Z,370.00
2022-12-01T07:35:01.000Z,293.60
2022-12-01T07:45:02.000Z,273.70
2022-12-01T07:55:02.000Z,308.30
2022-12-01T08:05:02.000Z,332.90
2022-12-01T08:25:02.000Z,337.20
2022-12-01T08:35:03.000Z,280.10
2022-12-01T08:45:03.000Z,254.30
2022-12-01T08:55:03.000Z,252.40
2022-12-01T09:05:03.000Z,259.70
2022-12-01T09:15:03.000Z,277.60
2022-12-01T09:25:03.000Z,217.10
2022-12-01T09:35:03.000Z,206.30
2022-12-01T09:55:03.000Z,240.20
2022-12-01T10:05:04.000Z,234.40
2022-12-01T10:15:04.000Z,208.10
2022-12-01T10:25:04.000Z,247.70
2022-12-01T10:35:04.000Z,232.50
2022-12-01T10:45:04.000Z,248.10
2022-12-01T10:55:04.000Z,247.70
2022-12-01T11:05:04.000Z,208.50
2022-12-01T11:25:04.000Z,268.50
2022-12-01T11:35:05.000Z,276.30
2022-12-01T11:45:05.000Z,274.00
2022-12-01T11:55:05.000Z,256.40
2022-12-01T12:05:05.000Z,265.00
2022-12-01T12:15:05.000Z,293.00
2022-12-01T12:25:05.000Z,294.60
2022-12-01T12:35:05.000Z,238.50
2022-12-01T12:55:05.000Z,251.20
2022-12-01T13:05:05.000Z,242.10
2022-12-01T13:15:06.000Z,239.80
2022-12-01T13:25:06.000Z,205.30
2022-12-01T13:35:06.000Z,215.70
2022-12-01T13:45:06.000Z,238.20
2022-12-01T13:55:06.000Z,218.20
2022-12-01T14:05:06.000Z,221.90
2022-12-01T14:25:06.000Z,270.50
2022-12-01T14:35:06.000Z,208.80
2022-12-01T14:45:07.000Z,191.80
2022-12-01T14:55:07.000Z,233.80
2022-12-01T15:05:07.000Z,259.00
2022-12-01T15:15:07.000Z,235.70
2022-12-01T15:25:07.000Z,220.80
2022-12-01T15:35:07.000Z,218.00
2022-12-01T15:55:08.000Z,202.10
2022-12-01T16:05:08.000Z,231.20
2022-12-01T16:15:08.000Z,221.70
2022-12-01T16:25:08.000Z,230.00
2022-12-01T16:35:08.000Z,220.10
2022-12-01T16:45:08.000Z,234.00
2022-12-01T16:55:08.000Z,257.10
2022-12-01T17:05:09.000Z,265.40
2022-12-01T17:25:09.000Z,271.70
2022-12-01T17:35:09.000Z,239.60
2022-12-01T17:45:09.000Z,224.50
2022-12-01T17:55:09.000Z,235.50
2022-12-01T18:05:10.000Z,271.60
2022-12-01T18:15:10.000Z,254.50
2022-12-01T18:25:10.000Z,297.90
2022-12-01T18:35:10.000Z,279.90
2022-12-01T18:55:10.000Z,302.40
2022-12-01T19:05:11.000Z,318.10
2022-12-01T19:15:11.000Z,266.90
2022-12-01T19:25:11.000Z,299.60
2022-12-01T19:35:11.000Z,295.10
2022-12-01T19:45:11.000Z,291.80
2022-12-01T19:55:11.000Z,277.90
2022-12-01T21:01:40.000Z,309.50
2022-12-01T21:32:34.000Z,316.60
2022-12-01T21:58:10.000Z,328.30
2022-12-01T21:58:10.000Z,317.60
2022-12-01T22:08:10.000Z,284.50
2022-12-01T22:18:10.000Z,331.80
2022-12-01T22:28:10.000Z,334.70
2022-12-01T22:38:10.000Z,271.00
2022-12-01T22:48:10.000Z,288.40
2022-12-01T22:58:09.000Z,326.90
2022-12-01T23:08:09.000Z,290.80
2022-12-01T23:28:09.000Z,274.90
2022-12-01T23:38:09.000Z,283.90
2022-12-01T23:48:09.000Z,273.50
2022-12-01T23:58:09.000Z,240.40
